sensor_id;sensor_type;location;lat;lon;timestamp;P1;durP1;ratioP1;P2;durP2;ratioP2
64459;SDS011;50828;53.756;21.140;2023-04-25T00:05:14;15.80;;;9.20;;
64459;SDS011;50828;53.756;21.140;2023-04-25T00:10:24;12.20;;;8.90;;
64459;SDS011;50828;53.756;21.140;2023-04-25T00:15:31;12.70;;;8.20;;
64459;SDS011;50828;53.756;21.140;2023-04-25T00:20:39;12.10;;;8.30;;
64459;SDS011;50828;53.756;21.140;2023-04-25T00:25:50;13.30;;;7.80;;
64459;SDS011;50828;53.756;21.140;2023-04-25T00:30:57;14.10;;;8.30;;
64459;SDS011;50828;53.756;21.140;2023-04-25T00:36:05;13.70;;;8.80;;
64459;SDS011;50828;53.756;21.140;2023-04-25T00:41:14;11.60;;;8.50;;
64459;SDS011;50828;53.756;21.140;2023-04-25T00:46:21;13.20;;;8.20;;
64459;SDS011;50828;53.756;21.140;2023-04-25T00:51:28;13.70;;;9.40;;
64459;SDS011;50828;53.756;21.140;2023-04-25T00:56:38;12.70;;;8.60;;
64459;SDS011;50828;53.756;21.140;2023-04-25T01:01:46;13.20;;;8.90;;
64459;SDS011;50828;53.756;21.140;2023-04-25T01:06:54;13.30;;;8.90;;
64459;SDS011;50828;53.756;21.140;2023-04-25T01:12:03;11.40;;;8.50;;
64459;SDS011;50828;53.756;21.140;2023-04-25T01:17:11;11.00;;;8.30;;
64459;SDS011;50828;53.756;21.140;2023-04-25T01:22:19;10.70;;;8.10;;
64459;SDS011;50828;53.756;21.140;2023-04-25T01:27:27;13.50;;;8.80;;
64459;SDS011;50828;53.756;21.140;2023-04-25T01:32:36;13.80;;;8.70;;
64459;SDS011;50828;53.756;21.140;2023-04-25T01:37:44;11.30;;;8.30;;
64459;SDS011;50828;53.756;21.140;2023-04-25T01:42:53;13.10;;;9.20;;
64459;SDS011;50828;53.756;21.140;2023-04-25T01:48:01;14.50;;;9.50;;
64459;SDS011;50828;53.756;21.140;2023-04-25T01:53:08;15.10;;;9.00;;
64459;SDS011;50828;53.756;21.140;2023-04-25T01:58:20;15.00;;;9.50;;
64459;SDS011;50828;53.756;21.140;2023-04-25T02:03:46;15.10;;;9.40;;
64459;SDS011;50828;53.756;21.140;2023-04-25T02:09:09;10.50;;;7.60;;
64459;SDS011;50828;53.756;21.140;2023-04-25T02:14:22;14.20;;;9.10;;
64459;SDS011;50828;53.756;21.140;2023-04-25T02:19:40;13.90;;;9.20;;
64459;SDS011;50828;53.756;21.140;2023-04-25T02:24:48;14.90;;;9.10;;
64459;SDS011;50828;53.756;21.140;2023-04-25T02:29:56;16.20;;;9.70;;
64459;SDS011;50828;53.756;21.140;2023-04-25T02:35:04;12.80;;;9.50;;
64459;SDS011;50828;53.756;21.140;2023-04-25T02:40:13;13.90;;;9.60;;
64459;SDS011;50828;53.756;21.140;2023-04-25T02:45:21;16.50;;;9.90;;
64459;SDS011;50828;53.756;21.140;2023-04-25T02:50:28;14.70;;;9.00;;
64459;SDS011;50828;53.756;21.140;2023-04-25T02:55:36;15.10;;;9.30;;
64459;SDS011;50828;53.756;21.140;2023-04-25T03:00:44;15.50;;;10.30;;
64459;SDS011;50828;53.756;21.140;2023-04-25T03:05:52;15.20;;;10.30;;
64459;SDS011;50828;53.756;21.140;2023-04-25T03:11:03;14.70;;;10.00;;
64459;SDS011;50828;53.756;21.140;2023-04-25T03:16:11;15.50;;;10.30;;
64459;SDS011;50828;53.756;21.140;2023-04-25T03:21:19;14.20;;;10.30;;
64459;SDS011;50828;53.756;21.140;2023-04-25T03:26:27;16.00;;;10.30;;
64459;SDS011;50828;53.756;21.140;2023-04-25T03:31:35;18.90;;;12.30;;
64459;SDS011;50828;53.756;21.140;2023-04-25T03:36:43;19.50;;;11.00;;
64459;SDS011;50828;53.756;21.140;2023-04-25T03:41:51;27.50;;;12.10;;
64459;SDS011;50828;53.756;21.140;2023-04-25T03:46:58;17.70;;;11.60;;
64459;SDS011;50828;53.756;21.140;2023-04-25T03:52:07;17.60;;;11.40;;
64459;SDS011;50828;53.756;21.140;2023-04-25T03:57:15;15.70;;;11.10;;
64459;SDS011;50828;53.756;21.140;2023-04-25T04:02:24;13.80;;;10.30;;
64459;SDS011;50828;53.756;21.140;2023-04-25T04:07:32;18.30;;;11.80;;
64459;SDS011;50828;53.756;21.140;2023-04-25T04:12:46;16.20;;;11.10;;
64459;SDS011;50828;53.756;21.140;2023-04-25T04:17:53;17.00;;;11.40;;
64459;SDS011;50828;53.756;21.140;2023-04-25T04:23:01;18.30;;;11.60;;
64459;SDS011;50828;53.756;21.140;2023-04-25T04:28:09;17.60;;;11.60;;
64459;SDS011;50828;53.756;21.140;2023-04-25T04:33:37;18.00;;;11.70;;
64459;SDS011;50828;53.756;21.140;2023-04-25T04:38:44;17.80;;;12.50;;
64459;SDS011;50828;53.756;21.140;2023-04-25T04:44:06;17.40;;;10.50;;
64459;SDS011;50828;53.756;21.140;2023-04-25T04:49:32;15.30;;;10.50;;
64459;SDS011;50828;53.756;21.140;2023-04-25T04:55:19;15.30;;;10.60;;
64459;SDS011;50828;53.756;21.140;2023-04-25T05:01:02;14.30;;;9.90;;
64459;SDS011;50828;53.756;21.140;2023-04-25T05:06:29;15.20;;;10.10;;
64459;SDS011;50828;53.756;21.140;2023-04-25T05:11:52;17.10;;;12.50;;
64459;SDS011;50828;53.756;21.140;2023-04-25T05:17:25;16.50;;;11.90;;
64459;SDS011;50828;53.756;21.140;2023-04-25T05:22:45;15.20;;;10.70;;
64459;SDS011;50828;53.756;21.140;2023-04-25T05:28:13;17.10;;;11.00;;
64459;SDS011;50828;53.756;21.140;2023-04-25T05:33:44;16.20;;;11.00;;
64459;SDS011;50828;53.756;21.140;2023-04-25T05:38:53;17.20;;;11.20;;
64459;SDS011;50828;53.756;21.140;2023-04-25T05:44:23;13.70;;;10.50;;
64459;SDS011;50828;53.756;21.140;2023-04-25T05:49:49;14.90;;;10.50;;
64459;SDS011;50828;53.756;21.140;2023-04-25T05:55:18;14.50;;;9.80;;
64459;SDS011;50828;53.756;21.140;2023-04-25T06:00:26;10.90;;;9.00;;
64459;SDS011;50828;53.756;21.140;2023-04-25T06:05:34;12.00;;;9.00;;
64459;SDS011;50828;53.756;21.140;2023-04-25T06:10:42;12.20;;;8.30;;
64459;SDS011;50828;53.756;21.140;2023-04-25T06:15:50;11.60;;;8.40;;
64459;SDS011;50828;53.756;21.140;2023-04-25T06:20:58;9.50;;;7.60;;
64459;SDS011;50828;53.756;21.140;2023-04-25T06:26:07;9.80;;;7.40;;
64459;SDS011;50828;53.756;21.140;2023-04-25T06:31:16;9.30;;;6.30;;
64459;SDS011;50828;53.756;21.140;2023-04-25T06:36:25;9.70;;;6.50;;
64459;SDS011;50828;53.756;21.140;2023-04-25T06:41:37;8.20;;;7.40;;
64459;SDS011;50828;53.756;21.140;2023-04-25T06:46:59;13.40;;;8.70;;
64459;SDS011;50828;53.756;21.140;2023-04-25T06:52:07;11.80;;;9.20;;
64459;SDS011;50828;53.756;21.140;2023-04-25T06:57:15;13.00;;;9.60;;
64459;SDS011;50828;53.756;21.140;2023-04-25T07:02:24;12.90;;;9.40;;
64459;SDS011;50828;53.756;21.140;2023-04-25T07:07:33;10.70;;;8.60;;
64459;SDS011;50828;53.756;21.140;2023-04-25T07:12:41;11.60;;;8.50;;
64459;SDS011;50828;53.756;21.140;2023-04-25T07:17:48;15.70;;;8.30;;
64459;SDS011;50828;53.756;21.140;2023-04-25T07:22:57;10.60;;;8.30;;
64459;SDS011;50828;53.756;21.140;2023-04-25T07:28:05;10.80;;;7.90;;
64459;SDS011;50828;53.756;21.140;2023-04-25T07:33:13;10.30;;;8.20;;
64459;SDS011;50828;53.756;21.140;2023-04-25T07:38:21;13.00;;;9.60;;
64459;SDS011;50828;53.756;21.140;2023-04-25T07:43:30;14.50;;;9.70;;
64459;SDS011;50828;53.756;21.140;2023-04-25T07:48:39;12.30;;;8.70;;
64459;SDS011;50828;53.756;21.140;2023-04-25T07:53:47;9.60;;;6.60;;
64459;SDS011;50828;53.756;21.140;2023-04-25T07:58:56;9.40;;;7.00;;
64459;SDS011;50828;53.756;21.140;2023-04-25T08:04:05;10.40;;;7.20;;
64459;SDS011;50828;53.756;21.140;2023-04-25T08:09:35;9.40;;;7.20;;
64459;SDS011;50828;53.756;21.140;2023-04-25T08:14:47;9.40;;;6.50;;
64459;SDS011;50828;53.756;21.140;2023-04-25T08:19:56;9.50;;;6.80;;
64459;SDS011;50828;53.756;21.140;2023-04-25T08:25:07;7.30;;;5.70;;
64459;SDS011;50828;53.756;21.140;2023-04-25T08:30:17;8.70;;;6.20;;
64459;SDS011;50828;53.756;21.140;2023-04-25T08:35:27;8.60;;;6.10;;
64459;SDS011;50828;53.756;21.140;2023-04-25T08:40:37;7.80;;;6.00;;
64459;SDS011;50828;53.756;21.140;2023-04-25T08:45:52;9.60;;;5.90;;
64459;SDS011;50828;53.756;21.140;2023-04-25T08:51:19;8.30;;;6.10;;
64459;SDS011;50828;53.756;21.140;2023-04-25T08:56:31;9.00;;;6.60;;
64459;SDS011;50828;53.756;21.140;2023-04-25T09:01:43;10.70;;;6.90;;
64459;SDS011;50828;53.756;21.140;2023-04-25T09:06:52;8.40;;;6.20;;
64459;SDS011;50828;53.756;21.140;2023-04-25T09:12:01;8.20;;;5.60;;
64459;SDS011;50828;53.756;21.140;2023-04-25T09:17:11;9.00;;;5.90;;
64459;SDS011;50828;53.756;21.140;2023-04-25T09:22:25;9.50;;;5.40;;
64459;SDS011;50828;53.756;21.140;2023-04-25T09:27:34;6.30;;;4.40;;
64459;SDS011;50828;53.756;21.140;2023-04-25T09:32:59;10.10;;;4.50;;
64459;SDS011;50828;53.756;21.140;2023-04-25T09:38:14;5.60;;;4.20;;
64459;SDS011;50828;53.756;21.140;2023-04-25T09:43:34;5.70;;;3.80;;
64459;SDS011;50828;53.756;21.140;2023-04-25T09:48:46;6.00;;;4.00;;
64459;SDS011;50828;53.756;21.140;2023-04-25T09:54:12;4.00;;;3.30;;
64459;SDS011;50828;53.756;21.140;2023-04-25T09:59:25;5.80;;;3.80;;
64459;SDS011;50828;53.756;21.140;2023-04-25T10:04:35;4.90;;;3.50;;
64459;SDS011;50828;53.756;21.140;2023-04-25T10:09:53;4.50;;;3.60;;
64459;SDS011;50828;53.756;21.140;2023-04-25T10:15:07;6.60;;;3.70;;
64459;SDS011;50828;53.756;21.140;2023-04-25T10:20:16;6.60;;;4.10;;
64459;SDS011;50828;53.756;21.140;2023-04-25T10:25:25;79.10;;;27.60;;
64459;SDS011;50828;53.756;21.140;2023-04-25T10:30:34;20.00;;;8.00;;
64459;SDS011;50828;53.756;21.140;2023-04-25T10:35:41;6.10;;;3.00;;
64459;SDS011;50828;53.756;21.140;2023-04-25T10:46:19;2.90;;;2.00;;
64459;SDS011;50828;53.756;21.140;2023-04-25T10:51:31;3.40;;;1.90;;
64459;SDS011;50828;53.756;21.140;2023-04-25T10:56:58;3.20;;;1.60;;
64459;SDS011;50828;53.756;21.140;2023-04-25T11:02:12;2.40;;;2.00;;
64459;SDS011;50828;53.756;21.140;2023-04-25T11:07:22;2.00;;;1.60;;
64459;SDS011;50828;53.756;21.140;2023-04-25T11:12:40;2.90;;;1.30;;
64459;SDS011;50828;53.756;21.140;2023-04-25T11:17:50;4.90;;;1.80;;
64459;SDS011;50828;53.756;21.140;2023-04-25T11:22:59;3.30;;;1.30;;
64459;SDS011;50828;53.756;21.140;2023-04-25T11:28:12;2.40;;;1.50;;
64459;SDS011;50828;53.756;21.140;2023-04-25T11:33:28;1.80;;;1.20;;
64459;SDS011;50828;53.756;21.140;2023-04-25T11:38:36;3.40;;;1.70;;
64459;SDS011;50828;53.756;21.140;2023-04-25T11:43:46;2.80;;;1.70;;
64459;SDS011;50828;53.756;21.140;2023-04-25T11:48:57;2.10;;;1.30;;
64459;SDS011;50828;53.756;21.140;2023-04-25T11:54:04;5.30;;;3.40;;
64459;SDS011;50828;53.756;21.140;2023-04-25T11:59:13;4.90;;;3.10;;
64459;SDS011;50828;53.756;21.140;2023-04-25T12:04:23;8.10;;;2.60;;
64459;SDS011;50828;53.756;21.140;2023-04-25T12:09:31;7.00;;;2.80;;
64459;SDS011;50828;53.756;21.140;2023-04-25T12:14:40;10.50;;;4.20;;
64459;SDS011;50828;53.756;21.140;2023-04-25T12:19:54;18.40;;;6.90;;
64459;SDS011;50828;53.756;21.140;2023-04-25T12:25:03;20.20;;;7.60;;
64459;SDS011;50828;53.756;21.140;2023-04-25T12:30:12;20.20;;;7.10;;
64459;SDS011;50828;53.756;21.140;2023-04-25T12:35:21;19.00;;;5.50;;
64459;SDS011;50828;53.756;21.140;2023-04-25T12:40:30;5.50;;;3.10;;
64459;SDS011;50828;53.756;21.140;2023-04-25T12:45:38;6.50;;;3.50;;
64459;SDS011;50828;53.756;21.140;2023-04-25T12:50:47;7.90;;;3.30;;
64459;SDS011;50828;53.756;21.140;2023-04-25T12:55:57;6.40;;;3.90;;
64459;SDS011;50828;53.756;21.140;2023-04-25T13:01:05;6.00;;;3.10;;
64459;SDS011;50828;53.756;21.140;2023-04-25T13:06:13;3.80;;;2.60;;
64459;SDS011;50828;53.756;21.140;2023-04-25T13:11:22;19.50;;;8.60;;
64459;SDS011;50828;53.756;21.140;2023-04-25T13:16:30;17.30;;;7.50;;
64459;SDS011;50828;53.756;21.140;2023-04-25T13:21:39;14.50;;;7.50;;
64459;SDS011;50828;53.756;21.140;2023-04-25T13:26:48;9.10;;;5.20;;
64459;SDS011;50828;53.756;21.140;2023-04-25T13:31:56;9.00;;;4.50;;
64459;SDS011;50828;53.756;21.140;2023-04-25T13:37:05;6.60;;;3.80;;
64459;SDS011;50828;53.756;21.140;2023-04-25T13:42:14;9.40;;;5.10;;
64459;SDS011;50828;53.756;21.140;2023-04-25T13:47:22;9.60;;;5.90;;
64459;SDS011;50828;53.756;21.140;2023-04-25T13:52:31;14.20;;;7.10;;
64459;SDS011;50828;53.756;21.140;2023-04-25T13:57:39;7.50;;;4.60;;
64459;SDS011;50828;53.756;21.140;2023-04-25T14:02:47;5.00;;;3.00;;
64459;SDS011;50828;53.756;21.140;2023-04-25T14:07:55;5.20;;;3.50;;
64459;SDS011;50828;53.756;21.140;2023-04-25T14:13:04;12.40;;;5.20;;
64459;SDS011;50828;53.756;21.140;2023-04-25T14:18:13;8.50;;;4.90;;
64459;SDS011;50828;53.756;21.140;2023-04-25T14:23:21;12.70;;;6.10;;
64459;SDS011;50828;53.756;21.140;2023-04-25T14:28:28;22.00;;;12.60;;
64459;SDS011;50828;53.756;21.140;2023-04-25T14:33:37;14.80;;;7.10;;
64459;SDS011;50828;53.756;21.140;2023-04-25T14:38:47;16.70;;;8.80;;
64459;SDS011;50828;53.756;21.140;2023-04-25T14:43:56;24.20;;;10.30;;
64459;SDS011;50828;53.756;21.140;2023-04-25T14:49:04;26.40;;;11.20;;
64459;SDS011;50828;53.756;21.140;2023-04-25T14:54:14;21.40;;;9.40;;
64459;SDS011;50828;53.756;21.140;2023-04-25T14:59:22;16.30;;;7.80;;
64459;SDS011;50828;53.756;21.140;2023-04-25T15:04:31;11.30;;;6.90;;
64459;SDS011;50828;53.756;21.140;2023-04-25T15:09:40;13.40;;;7.80;;
64459;SDS011;50828;53.756;21.140;2023-04-25T15:14:48;13.40;;;7.70;;
64459;SDS011;50828;53.756;21.140;2023-04-25T15:19:57;10.70;;;4.80;;
64459;SDS011;50828;53.756;21.140;2023-04-25T15:25:06;11.80;;;4.60;;
64459;SDS011;50828;53.756;21.140;2023-04-25T15:30:16;7.60;;;4.70;;
64459;SDS011;50828;53.756;21.140;2023-04-25T15:35:25;9.90;;;5.10;;
64459;SDS011;50828;53.756;21.140;2023-04-25T15:40:34;7.80;;;4.50;;
64459;SDS011;50828;53.756;21.140;2023-04-25T15:45:42;9.50;;;6.10;;
64459;SDS011;50828;53.756;21.140;2023-04-25T15:50:50;37.20;;;14.50;;
64459;SDS011;50828;53.756;21.140;2023-04-25T15:55:57;34.20;;;14.30;;
64459;SDS011;50828;53.756;21.140;2023-04-25T16:01:07;20.90;;;9.80;;
64459;SDS011;50828;53.756;21.140;2023-04-25T16:06:15;28.90;;;13.20;;
64459;SDS011;50828;53.756;21.140;2023-04-25T16:11:23;29.00;;;15.40;;
64459;SDS011;50828;53.756;21.140;2023-04-25T16:16:33;97.00;;;38.30;;
64459;SDS011;50828;53.756;21.140;2023-04-25T16:21:42;173.70;;;59.40;;
64459;SDS011;50828;53.756;21.140;2023-04-25T16:26:51;318.20;;;99.60;;
64459;SDS011;50828;53.756;21.140;2023-04-25T16:32:00;198.30;;;61.20;;
64459;SDS011;50828;53.756;21.140;2023-04-25T16:37:09;254.40;;;73.20;;
64459;SDS011;50828;53.756;21.140;2023-04-25T16:42:17;246.20;;;73.10;;
64459;SDS011;50828;53.756;21.140;2023-04-25T16:47:26;188.50;;;57.80;;
64459;SDS011;50828;53.756;21.140;2023-04-25T16:52:35;183.40;;;56.40;;
64459;SDS011;50828;53.756;21.140;2023-04-25T16:57:47;150.20;;;49.30;;
64459;SDS011;50828;53.756;21.140;2023-04-25T17:02:55;148.20;;;49.60;;
64459;SDS011;50828;53.756;21.140;2023-04-25T17:08:04;87.30;;;33.70;;
64459;SDS011;50828;53.756;21.140;2023-04-25T17:13:13;49.50;;;19.60;;
64459;SDS011;50828;53.756;21.140;2023-04-25T17:18:22;75.40;;;29.50;;
64459;SDS011;50828;53.756;21.140;2023-04-25T17:23:29;70.00;;;30.40;;
64459;SDS011;50828;53.756;21.140;2023-04-25T17:28:37;71.00;;;30.70;;
64459;SDS011;50828;53.756;21.140;2023-04-25T17:33:48;64.80;;;25.90;;
64459;SDS011;50828;53.756;21.140;2023-04-25T17:38:57;54.20;;;24.40;;
64459;SDS011;50828;53.756;21.140;2023-04-25T17:44:06;61.50;;;24.80;;
64459;SDS011;50828;53.756;21.140;2023-04-25T17:49:14;46.80;;;17.70;;
64459;SDS011;50828;53.756;21.140;2023-04-25T17:54:23;121.00;;;35.00;;
64459;SDS011;50828;53.756;21.140;2023-04-25T17:59:31;176.60;;;49.70;;
64459;SDS011;50828;53.756;21.140;2023-04-25T18:04:39;113.60;;;33.10;;
64459;SDS011;50828;53.756;21.140;2023-04-25T18:09:46;91.70;;;26.00;;
64459;SDS011;50828;53.756;21.140;2023-04-25T18:14:54;137.80;;;41.00;;
64459;SDS011;50828;53.756;21.140;2023-04-25T18:20:03;73.10;;;23.50;;
64459;SDS011;50828;53.756;21.140;2023-04-25T18:25:14;94.40;;;28.60;;
64459;SDS011;50828;53.756;21.140;2023-04-25T18:30:23;63.00;;;20.50;;
64459;SDS011;50828;53.756;21.140;2023-04-25T18:35:33;29.30;;;11.50;;
64459;SDS011;50828;53.756;21.140;2023-04-25T18:40:55;23.80;;;9.60;;
64459;SDS011;50828;53.756;21.140;2023-04-25T18:46:23;27.60;;;10.60;;
64459;SDS011;50828;53.756;21.140;2023-04-25T18:51:32;21.20;;;8.80;;
64459;SDS011;50828;53.756;21.140;2023-04-25T18:56:41;27.40;;;10.50;;
64459;SDS011;50828;53.756;21.140;2023-04-25T19:01:49;12.40;;;6.40;;
64459;SDS011;50828;53.756;21.140;2023-04-25T19:06:59;11.00;;;5.10;;
64459;SDS011;50828;53.756;21.140;2023-04-25T19:12:08;15.80;;;5.50;;
64459;SDS011;50828;53.756;21.140;2023-04-25T19:17:17;11.90;;;5.40;;
64459;SDS011;50828;53.756;21.140;2023-04-25T19:22:26;9.70;;;5.20;;
64459;SDS011;50828;53.756;21.140;2023-04-25T19:27:36;7.30;;;4.30;;
64459;SDS011;50828;53.756;21.140;2023-04-25T19:32:45;9.80;;;5.20;;
64459;SDS011;50828;53.756;21.140;2023-04-25T19:37:53;15.70;;;6.30;;
64459;SDS011;50828;53.756;21.140;2023-04-25T19:43:01;16.10;;;8.50;;
64459;SDS011;50828;53.756;21.140;2023-04-25T19:48:10;23.30;;;10.10;;
64459;SDS011;50828;53.756;21.140;2023-04-25T19:53:19;26.00;;;10.10;;
64459;SDS011;50828;53.756;21.140;2023-04-25T19:58:28;25.80;;;11.90;;
64459;SDS011;50828;53.756;21.140;2023-04-25T20:03:38;32.40;;;11.90;;
64459;SDS011;50828;53.756;21.140;2023-04-25T20:08:47;32.10;;;11.50;;
64459;SDS011;50828;53.756;21.140;2023-04-25T20:13:58;25.50;;;8.90;;
64459;SDS011;50828;53.756;21.140;2023-04-25T20:19:05;23.60;;;8.00;;
64459;SDS011;50828;53.756;21.140;2023-04-25T20:24:13;21.60;;;8.80;;
64459;SDS011;50828;53.756;21.140;2023-04-25T20:29:21;29.60;;;12.80;;
64459;SDS011;50828;53.756;21.140;2023-04-25T20:34:30;24.20;;;9.80;;
64459;SDS011;50828;53.756;21.140;2023-04-25T20:39:39;17.40;;;9.10;;
64459;SDS011;50828;53.756;21.140;2023-04-25T20:44:46;17.40;;;7.10;;
64459;SDS011;50828;53.756;21.140;2023-04-25T20:49:54;14.10;;;5.20;;
64459;SDS011;50828;53.756;21.140;2023-04-25T20:55:04;17.80;;;5.90;;
64459;SDS011;50828;53.756;21.140;2023-04-25T21:00:14;12.60;;;4.80;;
64459;SDS011;50828;53.756;21.140;2023-04-25T21:05:32;12.90;;;5.10;;
64459;SDS011;50828;53.756;21.140;2023-04-25T21:10:40;10.10;;;4.30;;
64459;SDS011;50828;53.756;21.140;2023-04-25T21:15:47;13.90;;;3.90;;
64459;SDS011;50828;53.756;21.140;2023-04-25T21:20:55;18.80;;;5.00;;
64459;SDS011;50828;53.756;21.140;2023-04-25T21:26:03;14.40;;;3.80;;
64459;SDS011;50828;53.756;21.140;2023-04-25T21:31:12;8.20;;;3.70;;
64459;SDS011;50828;53.756;21.140;2023-04-25T21:36:21;11.90;;;3.80;;
64459;SDS011;50828;53.756;21.140;2023-04-25T21:41:29;9.50;;;3.30;;
64459;SDS011;50828;53.756;21.140;2023-04-25T21:46:37;11.50;;;3.50;;
64459;SDS011;50828;53.756;21.140;2023-04-25T21:51:46;10.50;;;3.70;;
64459;SDS011;50828;53.756;21.140;2023-04-25T21:56:55;9.20;;;3.50;;
64459;SDS011;50828;53.756;21.140;2023-04-25T22:02:03;8.20;;;3.40;;
64459;SDS011;50828;53.756;21.140;2023-04-25T22:07:12;11.80;;;3.80;;
64459;SDS011;50828;53.756;21.140;2023-04-25T22:12:21;7.50;;;3.30;;
64459;SDS011;50828;53.756;21.140;2023-04-25T22:17:28;11.10;;;3.40;;
64459;SDS011;50828;53.756;21.140;2023-04-25T22:22:37;13.70;;;3.30;;
64459;SDS011;50828;53.756;21.140;2023-04-25T22:27:46;8.70;;;3.50;;
64459;SDS011;50828;53.756;21.140;2023-04-25T22:32:55;11.00;;;3.20;;
64459;SDS011;50828;53.756;21.140;2023-04-25T22:38:03;13.10;;;3.00;;
64459;SDS011;50828;53.756;21.140;2023-04-25T22:43:11;11.30;;;3.80;;
64459;SDS011;50828;53.756;21.140;2023-04-25T22:48:19;10.40;;;4.00;;
64459;SDS011;50828;53.756;21.140;2023-04-25T22:53:27;12.40;;;3.80;;
64459;SDS011;50828;53.756;21.140;2023-04-25T22:58:38;12.60;;;3.70;;
64459;SDS011;50828;53.756;21.140;2023-04-25T23:03:50;13.50;;;3.50;;
64459;SDS011;50828;53.756;21.140;2023-04-25T23:08:58;9.10;;;3.50;;
64459;SDS011;50828;53.756;21.140;2023-04-25T23:14:05;11.50;;;3.60;;
64459;SDS011;50828;53.756;21.140;2023-04-25T23:19:13;13.00;;;3.10;;
64459;SDS011;50828;53.756;21.140;2023-04-25T23:24:21;10.00;;;3.40;;
64459;SDS011;50828;53.756;21.140;2023-04-25T23:29:29;9.90;;;4.00;;
64459;SDS011;50828;53.756;21.140;2023-04-25T23:34:38;11.50;;;3.50;;
64459;SDS011;50828;53.756;21.140;2023-04-25T23:39:49;11.80;;;3.60;;
64459;SDS011;50828;53.756;21.140;2023-04-25T23:44:57;11.10;;;3.70;;
64459;SDS011;50828;53.756;21.140;2023-04-25T23:50:10;9.50;;;3.50;;
64459;SDS011;50828;53.756;21.140;2023-04-25T23:55:17;10.90;;;3.70;;
